createdAt,value
2018-04-06T00:01:12.496Z,6.63
2018-04-06T00:03:40.131Z,6.73
2018-04-06T00:06:07.586Z,10.17
2018-04-06T00:08:35.174Z,12.97
2018-04-06T00:11:02.907Z,6.93
2018-04-06T00:13:30.350Z,10.90
2018-04-06T00:15:57.998Z,8.00
2018-04-06T00:18:25.590Z,7.83
2018-04-06T00:20:53.341Z,8.07
2018-04-06T00:23:21.306Z,16.63
2018-04-06T00:25:48.866Z,16.33
2018-04-06T00:28:16.631Z,9.50
2018-04-06T00:30:44.124Z,9.30
2018-04-06T00:33:11.854Z,8.87
2018-04-06T00:35:39.311Z,9.37
2018-04-06T00:38:07.010Z,10.20
2018-04-06T00:40:34.466Z,12.07
2018-04-06T00:43:01.963Z,8.80
2018-04-06T00:45:29.423Z,10.80
2018-04-06T00:47:57.204Z,6.73
2018-04-06T00:50:24.839Z,6.63
2018-04-06T00:52:52.414Z,6.93
2018-04-06T00:55:20.058Z,6.30
2018-04-06T00:57:47.563Z,8.37
2018-04-06T01:00:15.098Z,10.07
2018-04-06T01:02:42.872Z,13.03
2018-04-06T01:05:10.627Z,8.17
2018-04-06T01:07:38.303Z,7.47
2018-04-06T01:10:05.754Z,6.20
2018-04-06T01:12:33.302Z,10.07
2018-04-06T01:15:00.753Z,8.40
2018-04-06T01:17:28.211Z,7.47
2018-04-06T01:19:55.771Z,15.80
2018-04-06T01:22:23.321Z,7.73
2018-04-06T01:24:50.896Z,8.77
2018-04-06T01:27:18.373Z,8.30
2018-04-06T01:29:46.118Z,7.93
2018-04-06T01:32:13.578Z,10.07
2018-04-06T01:34:41.219Z,7.33
2018-04-06T01:37:08.667Z,10.00
2018-04-06T01:39:36.206Z,6.33
2018-04-06T01:42:03.693Z,7.40
2018-04-06T01:47:04.462Z,6.83
2018-04-06T01:49:44.814Z,10.20
2018-04-06T01:52:12.531Z,7.83
2018-04-06T01:54:39.993Z,7.63
2018-04-06T01:57:07.446Z,9.07
2018-04-06T01:59:34.906Z,7.60
2018-04-06T02:02:02.358Z,6.53
2018-04-06T02:04:29.815Z,7.30
2018-04-06T02:06:57.267Z,8.80
2018-04-06T02:09:24.713Z,8.97
2018-04-06T02:11:52.238Z,8.97
2018-04-06T02:14:19.702Z,6.83
2018-04-06T02:16:47.366Z,10.57
2018-04-06T02:19:14.830Z,10.67
2018-04-06T02:21:42.281Z,9.97
2018-04-06T02:24:09.828Z,8.97
2018-04-06T02:26:37.579Z,7.20
2018-04-06T02:29:05.026Z,10.30
2018-04-06T02:31:32.485Z,9.53
2018-04-06T02:33:59.959Z,7.70
2018-04-06T02:36:27.611Z,7.03
2018-04-06T02:38:55.058Z,11.87
2018-04-06T02:41:22.561Z,8.20
2018-04-06T02:43:50.091Z,7.00
2018-04-06T02:46:17.751Z,7.73
2018-04-06T02:48:45.311Z,9.43
2018-04-06T02:51:12.772Z,11.50
2018-04-06T02:53:40.222Z,9.00
2018-04-06T02:56:07.996Z,9.57
2018-04-06T02:58:35.821Z,8.57
2018-04-06T03:01:03.514Z,9.40
2018-04-06T03:03:30.972Z,7.77
2018-04-06T03:05:58.443Z,7.93
2018-04-06T03:08:26.196Z,8.03
2018-04-06T03:10:53.656Z,10.67
2018-04-06T03:13:21.353Z,11.50
2018-04-06T03:15:48.875Z,8.53
2018-04-06T03:18:16.366Z,10.13
2018-04-06T03:20:43.975Z,9.33
2018-04-06T03:23:11.547Z,7.97
2018-04-06T03:25:39.033Z,11.17
2018-04-06T03:28:06.478Z,7.70
2018-04-06T03:30:34.107Z,8.87
2018-04-06T03:33:01.563Z,9.17
2018-04-06T03:35:29.052Z,10.73
2018-04-06T03:37:56.504Z,8.40
2018-04-06T03:40:23.958Z,10.97
2018-04-06T03:42:51.511Z,10.47
2018-04-06T03:45:18.962Z,9.77
2018-04-06T03:50:20.516Z,8.60
2018-04-06T03:52:48.091Z,8.20
2018-04-06T03:55:15.860Z,11.30
2018-04-06T03:57:43.327Z,9.53
2018-04-06T04:00:10.922Z,11.63
2018-04-06T04:02:38.535Z,12.40
2018-04-06T04:05:05.991Z,12.40
2018-04-06T04:07:33.451Z,10.67
2018-04-06T04:10:00.907Z,12.50
2018-04-06T04:12:28.375Z,7.80
2018-04-06T04:14:56.126Z,11.83
2018-04-06T04:17:23.887Z,10.13
2018-04-06T04:19:51.347Z,13.93
2018-04-06T04:22:18.986Z,12.83
2018-04-06T04:24:46.462Z,17.10
2018-04-06T04:27:14.023Z,15.67
2018-04-06T04:29:41.672Z,9.93
2018-04-06T04:32:09.245Z,14.60
2018-04-06T04:34:37.622Z,12.33
2018-04-06T04:37:05.086Z,9.90
2018-04-06T04:39:32.710Z,16.30
2018-04-06T04:42:00.300Z,15.17
2018-04-06T04:44:28.066Z,19.20
2018-04-06T04:46:55.634Z,13.27
2018-04-06T04:49:23.196Z,12.73
2018-04-06T04:51:50.731Z,12.27
2018-04-06T04:54:18.387Z,16.50
2018-04-06T04:56:45.871Z,12.37
2018-04-06T04:59:13.427Z,11.13
2018-04-06T05:01:41.181Z,10.07
2018-04-06T05:04:08.822Z,11.73
2018-04-06T05:06:36.399Z,14.00
2018-04-06T05:09:03.868Z,14.90
2018-04-06T05:11:31.312Z,12.87
2018-04-06T05:13:59.095Z,10.43
2018-04-06T05:16:26.786Z,9.80
2018-04-06T05:18:55.152Z,10.70
2018-04-06T05:21:22.611Z,23.50
2018-04-06T05:23:50.072Z,18.83
2018-04-06T05:26:17.590Z,20.53
2018-04-06T05:28:45.062Z,14.20
2018-04-06T05:31:12.810Z,12.10
2018-04-06T05:33:41.206Z,13.87
2018-04-06T05:36:08.670Z,16.73
2018-04-06T05:38:36.497Z,21.47
2018-04-06T05:41:04.097Z,12.33
2018-04-06T05:43:31.550Z,18.17
2018-04-06T05:45:59.084Z,31.80
2018-04-06T05:48:26.728Z,14.10
2018-04-06T05:50:54.322Z,14.57
2018-04-06T05:53:22.087Z,18.23
2018-04-06T05:55:49.846Z,25.17
2018-04-06T05:58:17.435Z,20.43
2018-04-06T06:00:45.066Z,21.47
2018-04-06T06:03:12.510Z,17.37
2018-04-06T06:05:40.302Z,18.60
2018-04-06T06:08:08.039Z,15.37
2018-04-06T06:10:35.702Z,16.30
2018-04-06T06:13:03.167Z,14.27
2018-04-06T06:15:30.622Z,12.80
2018-04-06T06:17:58.182Z,14.40
2018-04-06T06:20:25.805Z,19.47
2018-04-06T06:22:53.272Z,27.43
2018-04-06T06:25:20.759Z,13.17
2018-04-06T06:27:48.332Z,19.77
2018-04-06T06:30:15.779Z,14.37
2018-04-06T06:32:43.522Z,18.40
2018-04-06T06:35:10.966Z,17.90
2018-04-06T06:37:38.435Z,16.70
2018-04-06T06:40:06.094Z,17.33
2018-04-06T06:42:33.559Z,21.43
2018-04-06T06:45:01.106Z,19.40
2018-04-06T06:47:28.582Z,23.30
2018-04-06T06:49:56.330Z,29.80
2018-04-06T06:52:23.783Z,29.27
2018-04-06T06:54:51.434Z,36.37
2018-04-06T06:57:18.890Z,30.47
2018-04-06T06:59:46.630Z,29.10
2018-04-06T07:02:14.232Z,27.47
2018-04-06T07:04:41.874Z,25.90
2018-04-06T07:07:09.331Z,23.73
2018-04-06T07:09:37.111Z,29.87
2018-04-06T07:12:04.560Z,45.20
2018-04-06T07:14:32.048Z,42.63
2018-04-06T07:16:59.542Z,46.93
2018-04-06T07:19:27.011Z,53.87
2018-04-06T07:21:54.506Z,90.03
2018-04-06T07:24:22.267Z,119.10
2018-04-06T07:26:49.723Z,112.50
2018-04-06T07:29:17.191Z,90.77
2018-04-06T07:31:44.942Z,72.47
2018-04-06T07:34:12.422Z,28.17
2018-04-06T07:36:40.060Z,13.97
2018-04-06T07:39:07.508Z,10.43
2018-04-06T07:41:34.964Z,10.67
2018-04-06T07:44:02.472Z,12.60
2018-04-06T07:46:29.931Z,7.20
2018-04-06T07:48:57.396Z,9.50
2018-04-06T07:51:24.878Z,5.70
2018-04-06T07:53:52.325Z,7.57
2018-04-06T07:56:22.301Z,10.10
2018-04-06T07:58:47.255Z,14.37
2018-04-06T08:01:14.706Z,8.63
2018-04-06T08:03:42.154Z,8.07
2018-04-06T08:06:09.619Z,6.97
2018-04-06T08:08:37.074Z,9.53
2018-04-06T08:11:04.534Z,8.37
2018-04-06T08:13:32.000Z,5.93
2018-04-06T08:15:59.459Z,7.43
2018-04-06T08:18:26.910Z,7.07
2018-04-06T08:20:55.328Z,7.97
2018-04-06T08:23:23.011Z,6.50
2018-04-06T08:25:50.510Z,11.97
2018-04-06T08:28:18.157Z,11.87
2018-04-06T08:30:45.750Z,10.03
2018-04-06T08:33:13.422Z,12.10
2018-04-06T08:35:40.874Z,9.33
2018-04-06T08:38:09.098Z,6.10
2018-04-06T08:40:36.787Z,8.63
2018-04-06T08:43:04.252Z,7.30
2018-04-06T08:45:32.014Z,6.03
2018-04-06T08:47:59.518Z,6.70
2018-04-06T08:50:27.239Z,8.37
2018-04-06T08:52:54.798Z,9.83
2018-04-06T08:55:22.246Z,11.87
2018-04-06T08:57:49.722Z,10.27
2018-04-06T09:00:17.270Z,9.00
2018-04-06T09:02:44.722Z,4.67
2018-04-06T09:05:12.174Z,6.97
2018-04-06T09:07:39.801Z,4.53
2018-04-06T09:10:07.301Z,7.87
2018-04-06T09:12:34.831Z,4.07
2018-04-06T09:15:02.235Z,7.10
2018-04-06T09:17:30.496Z,7.53
2018-04-06T09:19:57.970Z,6.10
2018-04-06T09:22:25.422Z,4.20
2018-04-06T09:24:52.879Z,6.63
2018-04-06T09:27:20.335Z,10.13
2018-04-06T09:29:47.792Z,5.63
2018-04-06T09:32:15.253Z,5.00
2018-04-06T09:34:42.706Z,2.43
2018-04-06T09:37:10.164Z,6.37
2018-04-06T09:39:37.653Z,4.63
2018-04-06T09:42:05.115Z,5.17
2018-04-06T09:44:32.563Z,5.17
2018-04-06T09:47:00.131Z,4.30
2018-04-06T09:49:27.621Z,3.50
2018-04-06T09:51:55.095Z,4.23
2018-04-06T09:54:22.551Z,4.13
2018-04-06T09:56:50.026Z,3.77
2018-04-06T09:59:17.518Z,2.83
2018-04-06T10:01:47.402Z,2.53
2018-04-06T10:04:14.858Z,10.97
2018-04-06T10:06:42.314Z,4.13
2018-04-06T10:09:09.766Z,5.27
2018-04-06T10:11:37.220Z,7.97
2018-04-06T10:14:04.671Z,4.80
2018-04-06T10:16:32.122Z,4.07
2018-04-06T10:18:59.578Z,6.03
2018-04-06T10:21:27.027Z,6.77
2018-04-06T10:23:54.504Z,5.23
2018-04-06T10:26:22.811Z,4.67
2018-04-06T10:28:50.276Z,4.17
2018-04-06T10:31:17.740Z,3.67
2018-04-06T10:33:45.255Z,4.90
2018-04-06T10:36:12.709Z,4.57
2018-04-06T10:38:40.171Z,6.03
2018-04-06T10:41:07.619Z,9.90
2018-04-06T10:43:35.079Z,2.73
2018-04-06T10:46:02.613Z,4.30
2018-04-06T10:48:30.103Z,4.03
2018-04-06T10:50:58.474Z,4.30
2018-04-06T10:53:25.979Z,6.13
2018-04-06T10:55:53.383Z,8.70
2018-04-06T10:58:20.845Z,4.50
2018-04-06T11:00:48.304Z,4.03
2018-04-06T11:03:15.750Z,7.10
2018-04-06T11:05:43.429Z,4.97
2018-04-06T11:08:10.879Z,2.40
2018-04-06T11:10:38.419Z,2.93
2018-04-06T11:13:06.174Z,3.70
2018-04-06T11:15:33.842Z,2.93
2018-04-06T11:18:01.295Z,5.90
2018-04-06T11:20:28.775Z,4.30
2018-04-06T11:22:56.255Z,3.47
2018-04-06T11:25:23.702Z,6.87
2018-04-06T11:27:51.165Z,2.80
2018-04-06T11:30:18.634Z,4.30
2018-04-06T11:32:46.095Z,3.00
2018-04-06T11:35:13.591Z,2.73
2018-04-06T11:37:41.038Z,4.60
2018-04-06T11:40:08.499Z,4.30
2018-04-06T11:42:36.124Z,6.50
2018-04-06T11:45:03.566Z,4.57
2018-04-06T11:47:31.023Z,4.20
2018-04-06T11:49:58.492Z,3.70
2018-04-06T11:52:25.974Z,2.77
2018-04-06T11:54:54.352Z,3.43
2018-04-06T11:57:21.824Z,3.70
2018-04-06T11:59:49.313Z,3.60
2018-04-06T12:02:16.746Z,6.13
2018-04-06T12:04:44.198Z,4.10
2018-04-06T12:07:11.693Z,4.53
2018-04-06T12:09:39.161Z,3.47
2018-04-06T12:12:06.621Z,6.07
2018-04-06T12:14:34.071Z,3.00
2018-04-06T12:17:01.614Z,2.93
2018-04-06T12:19:29.836Z,2.40
2018-04-06T12:21:57.278Z,2.87
2018-04-06T12:24:24.774Z,5.20
2018-04-06T12:26:52.225Z,2.93
2018-04-06T12:29:19.682Z,4.93
2018-04-06T12:31:47.147Z,2.87
2018-04-06T12:34:14.611Z,4.80
2018-04-06T12:36:42.066Z,4.43
2018-04-06T12:39:09.539Z,3.30
2018-04-06T12:41:36.994Z,4.67
2018-04-06T12:44:04.514Z,5.03
2018-04-06T12:46:31.970Z,3.27
2018-04-06T12:48:59.448Z,5.80
2018-04-06T12:51:26.898Z,4.67
2018-04-06T12:53:54.367Z,5.83
2018-04-06T12:56:21.851Z,4.67
2018-04-06T12:58:50.091Z,5.97
2018-04-06T13:01:17.557Z,4.50
2018-04-06T13:03:45.014Z,8.57
2018-04-06T13:06:12.474Z,3.57
2018-04-06T13:08:39.930Z,5.90
2018-04-06T13:11:07.390Z,3.57
2018-04-06T13:13:34.834Z,4.73
2018-04-06T13:16:02.691Z,3.30
2018-04-06T13:18:30.147Z,3.60
2018-04-06T13:20:57.604Z,3.17
2018-04-06T13:23:25.057Z,3.97
2018-04-06T13:25:52.521Z,4.67
2018-04-06T13:28:19.975Z,6.97
2018-04-06T13:30:47.443Z,4.40
2018-04-06T13:33:14.890Z,3.90
2018-04-06T13:35:42.343Z,5.83
2018-04-06T13:38:09.805Z,6.83
2018-04-06T13:40:37.254Z,5.00
2018-04-06T13:43:04.718Z,5.13
2018-04-06T13:45:32.179Z,3.70
2018-04-06T13:47:59.655Z,3.10
2018-04-06T13:50:27.156Z,3.50
2018-04-06T13:52:54.612Z,5.20
2018-04-06T13:55:22.062Z,5.40
2018-04-06T13:57:49.518Z,9.23
2018-04-06T14:00:16.981Z,4.23
2018-04-06T14:02:44.450Z,3.10
2018-04-06T14:05:11.899Z,3.60
2018-04-06T14:07:39.350Z,4.00
2018-04-06T14:10:06.803Z,4.10
2018-04-06T14:12:34.263Z,5.37
2018-04-06T14:15:01.735Z,4.47
2018-04-06T14:17:29.203Z,4.30
2018-04-06T14:19:56.656Z,5.30
2018-04-06T14:22:24.103Z,5.50
2018-04-06T14:24:51.567Z,4.97
2018-04-06T14:27:19.096Z,3.40
2018-04-06T14:29:46.598Z,4.60
2018-04-06T14:32:14.051Z,4.30
2018-04-06T14:34:41.513Z,5.20
2018-04-06T14:37:08.975Z,3.00
2018-04-06T14:39:36.433Z,4.40
2018-04-06T14:42:03.889Z,4.33
2018-04-06T14:44:31.375Z,3.83
2018-04-06T14:46:58.824Z,3.77
2018-04-06T14:49:26.284Z,5.17
2018-04-06T14:51:53.737Z,5.07
2018-04-06T14:54:21.198Z,4.00
2018-04-06T14:56:48.646Z,8.77
2018-04-06T14:59:16.097Z,3.83
2018-04-06T15:01:43.590Z,4.10
2018-04-06T15:04:11.083Z,3.27
2018-04-06T15:06:38.564Z,2.90
2018-04-06T15:09:06.680Z,4.83
2018-04-06T15:11:34.156Z,3.00
2018-04-06T15:14:01.635Z,4.60
2018-04-06T15:16:29.140Z,3.90
2018-04-06T15:18:56.611Z,4.87
2018-04-06T15:21:24.135Z,4.47
2018-04-06T15:23:51.650Z,7.40
2018-04-06T15:26:19.144Z,4.97
2018-04-06T15:28:46.614Z,3.50
2018-04-06T15:31:14.105Z,2.57
2018-04-06T15:33:41.607Z,4.47
2018-04-06T15:36:09.183Z,6.20
2018-04-06T15:38:37.233Z,3.63
2018-04-06T15:41:04.753Z,3.20
2018-04-06T15:43:32.227Z,4.40
2018-04-06T15:45:59.692Z,3.60
2018-04-06T15:48:27.197Z,3.93
2018-04-06T15:50:54.694Z,2.97
2018-04-06T15:53:22.231Z,5.23
2018-04-06T15:55:49.723Z,3.23
2018-04-06T15:58:17.192Z,5.40
2018-04-06T16:00:44.711Z,4.30
2018-04-06T16:03:12.204Z,4.10
2018-04-06T16:05:39.687Z,4.23
2018-04-06T16:08:07.199Z,3.50
2018-04-06T16:10:34.744Z,3.83
2018-04-06T16:13:02.295Z,3.07
2018-04-06T16:15:29.878Z,6.70
2018-04-06T16:17:57.367Z,4.47
2018-04-06T16:20:24.873Z,4.00
2018-04-06T16:22:53.166Z,4.30
2018-04-06T16:25:20.627Z,5.17
2018-04-06T16:27:48.095Z,5.50
2018-04-06T16:30:15.613Z,4.47
2018-04-06T16:32:43.122Z,4.33
2018-04-06T16:35:10.618Z,4.07
2018-04-06T16:37:38.117Z,4.63
2018-04-06T16:40:05.637Z,3.43
2018-04-06T16:42:33.092Z,5.17
2018-04-06T16:45:00.610Z,4.93
2018-04-06T16:47:28.050Z,4.30
2018-04-06T16:49:55.533Z,6.17
2018-04-06T16:52:23.000Z,7.40
2018-04-06T16:54:50.524Z,7.23
2018-04-06T16:57:17.994Z,3.40
2018-04-06T16:59:45.479Z,3.10
2018-04-06T17:02:12.952Z,3.73
2018-04-06T17:04:40.429Z,4.47
2018-04-06T17:07:07.903Z,4.73
2018-04-06T17:09:35.388Z,4.63
2018-04-06T17:12:02.880Z,3.83
2018-04-06T17:14:30.384Z,6.70
2018-04-06T17:16:57.847Z,4.13
2018-04-06T17:19:26.516Z,3.37
2018-04-06T17:21:55.772Z,4.87
2018-04-06T17:24:23.994Z,3.60
2018-04-06T17:26:52.400Z,4.97
2018-04-06T17:29:19.924Z,4.93
2018-04-06T17:31:47.422Z,4.63
2018-04-06T17:34:14.882Z,6.40
2018-04-06T17:36:42.423Z,4.20
2018-04-06T17:39:09.923Z,3.60
2018-04-06T17:41:38.306Z,3.93
2018-04-06T17:44:06.563Z,5.77
2018-04-06T17:46:34.074Z,5.33
2018-04-06T17:49:01.566Z,4.93
2018-04-06T17:51:29.073Z,3.97
2018-04-06T17:53:56.564Z,7.63
2018-04-06T17:56:24.109Z,9.63
2018-04-06T17:58:51.606Z,6.37
2018-04-06T18:01:19.071Z,11.93
2018-04-06T18:03:46.586Z,4.67
2018-04-06T18:06:14.072Z,4.97
2018-04-06T18:08:41.535Z,5.03
2018-04-06T18:11:09.068Z,5.33
2018-04-06T18:13:36.599Z,5.70
2018-04-06T18:16:04.093Z,8.73
2018-04-06T18:18:31.550Z,6.60
2018-04-06T18:20:59.890Z,4.57
2018-04-06T18:23:28.192Z,6.33
2018-04-06T18:25:55.685Z,9.30
2018-04-06T18:28:23.996Z,4.83
2018-04-06T18:30:52.268Z,6.73
2018-04-06T18:33:19.734Z,6.40
2018-04-06T18:35:47.260Z,4.53
2018-04-06T18:38:15.497Z,9.57
2018-04-06T18:40:42.970Z,7.70
2018-04-06T18:43:10.429Z,8.17
2018-04-06T18:45:37.911Z,8.93
2018-04-06T18:48:06.160Z,14.10
2018-04-06T18:50:33.624Z,6.17
2018-04-06T18:53:01.096Z,4.93
2018-04-06T18:55:29.353Z,7.87
2018-04-06T18:57:56.824Z,6.77
2018-04-06T19:00:25.097Z,12.23
2018-04-06T19:02:52.564Z,8.57
2018-04-06T19:05:20.051Z,6.78
2018-04-06T19:07:47.529Z,8.43
2018-04-06T19:10:15.020Z,10.50
2018-04-06T19:12:42.480Z,5.60
2018-04-06T19:15:10.060Z,6.37
2018-04-06T19:17:37.520Z,6.07
2018-04-06T19:20:05.750Z,6.00
2018-04-06T19:22:33.224Z,8.77
2018-04-06T19:25:00.704Z,6.37
2018-04-06T19:27:28.968Z,23.43
2018-04-06T19:29:56.430Z,12.17
2018-04-06T19:32:23.910Z,7.50
2018-04-06T19:34:51.407Z,9.80
2018-04-06T19:37:18.896Z,8.93
2018-04-06T19:39:46.384Z,9.73
2018-04-06T19:42:13.862Z,12.97
2018-04-06T19:44:41.366Z,8.27
2018-04-06T19:47:08.857Z,9.10
2018-04-06T19:49:36.341Z,11.17
2018-04-06T19:52:03.819Z,8.80
2018-04-06T19:54:31.296Z,10.13
2018-04-06T19:56:58.786Z,8.63
2018-04-06T19:59:26.250Z,8.60
2018-04-06T20:01:53.734Z,13.17
2018-04-06T20:04:21.196Z,10.57
2018-04-06T20:06:48.676Z,11.40
2018-04-06T20:09:16.148Z,8.47
2018-04-06T20:11:44.385Z,13.77
2018-04-06T20:14:11.865Z,10.50
2018-04-06T20:16:39.356Z,11.63
2018-04-06T20:19:06.890Z,17.33
2018-04-06T20:21:34.396Z,13.90
2018-04-06T20:24:01.867Z,8.90
2018-04-06T20:26:29.330Z,9.77
2018-04-06T20:28:56.814Z,8.33
2018-04-06T20:31:24.312Z,53.93
2018-04-06T20:33:51.796Z,30.93
2018-04-06T20:36:19.287Z,13.33
2018-04-06T20:38:46.763Z,10.40
2018-04-06T20:41:14.249Z,7.43
2018-04-06T20:43:41.739Z,7.50
2018-04-06T20:46:09.214Z,7.77
2018-04-06T20:48:36.700Z,6.00
2018-04-06T20:51:04.230Z,10.40
2018-04-06T20:53:31.724Z,6.90
2018-04-06T20:55:59.207Z,6.83
2018-04-06T20:58:26.702Z,6.67
2018-04-06T21:00:54.215Z,7.13
2018-04-06T21:03:21.679Z,6.90
2018-04-06T21:05:49.163Z,7.87
2018-04-06T21:08:16.627Z,10.40
2018-04-06T21:10:44.111Z,9.57
2018-04-06T21:13:12.396Z,5.73
2018-04-06T21:15:40.647Z,6.67
2018-04-06T21:18:08.129Z,17.40
2018-04-06T21:20:35.632Z,8.07
2018-04-06T21:23:03.298Z,10.30
2018-04-06T21:25:30.819Z,7.60
2018-04-06T21:27:58.339Z,11.03
2018-04-06T21:30:26.731Z,8.70
2018-04-06T21:32:54.249Z,8.60
2018-04-06T21:35:21.756Z,9.77
2018-04-06T21:37:50.066Z,8.37
2018-04-06T21:40:17.576Z,10.97
2018-04-06T21:42:45.905Z,6.30
2018-04-06T21:45:13.372Z,5.93
2018-04-06T21:47:40.926Z,7.40
2018-04-06T21:50:08.440Z,9.57
2018-04-06T21:52:35.928Z,9.90
2018-04-06T21:55:03.427Z,7.93
2018-04-06T21:57:30.917Z,5.80
2018-04-06T21:59:58.514Z,8.37
2018-04-06T22:02:25.999Z,6.00
2018-04-06T22:04:53.467Z,5.80
2018-04-06T22:07:20.919Z,6.53
2018-04-06T22:09:48.391Z,9.27
2018-04-06T22:12:15.844Z,6.00
2018-04-06T22:14:43.318Z,7.83
2018-04-06T22:17:10.773Z,6.43
2018-04-06T22:19:39.004Z,6.83
2018-04-06T22:22:06.463Z,6.73
2018-04-06T22:24:33.914Z,8.63
2018-04-06T22:27:01.375Z,7.33
2018-04-06T22:29:28.831Z,6.97
2018-04-06T22:31:56.294Z,7.07
2018-04-06T22:34:23.758Z,6.40
2018-04-06T22:36:51.221Z,5.37
2018-04-06T22:39:18.690Z,9.00
2018-04-06T22:41:46.150Z,7.67
2018-04-06T22:44:14.377Z,8.23
2018-04-06T22:46:41.844Z,9.13
2018-04-06T22:49:09.294Z,9.67
2018-04-06T22:51:37.312Z,11.53
2018-04-06T22:54:04.758Z,8.13
2018-04-06T22:56:32.995Z,9.33
2018-04-06T22:59:00.455Z,5.90
2018-04-06T23:01:27.926Z,7.53
2018-04-06T23:03:55.382Z,7.60
2018-04-06T23:06:22.844Z,10.70
2018-04-06T23:08:50.286Z,9.83
2018-04-06T23:11:17.750Z,8.00
2018-04-06T23:13:45.211Z,11.83
2018-04-06T23:16:12.687Z,7.80
2018-04-06T23:18:40.919Z,13.40
2018-04-06T23:21:08.374Z,17.17
2018-04-06T23:23:35.848Z,7.07
2018-04-06T23:26:03.294Z,13.13
2018-04-06T23:28:30.746Z,6.63
2018-04-06T23:30:58.202Z,10.70
2018-04-06T23:33:25.662Z,6.13
2018-04-06T23:35:53.123Z,9.80
2018-04-06T23:38:20.578Z,8.03
2018-04-06T23:40:48.045Z,7.23
2018-04-06T23:43:15.512Z,9.23
2018-04-06T23:45:42.954Z,11.03
2018-04-06T23:48:10.434Z,11.07
2018-04-06T23:50:37.890Z,7.07
2018-04-06T23:53:05.351Z,10.87
2018-04-06T23:55:32.804Z,9.30
2018-04-06T23:58:00.281Z,8.00
